A And A — ZGBA7 — position and weather

sailwx.info

Track history (hours):
 
Tides and Currents Weather Stations Pressure Air Temp Water Temp Dewpoint Dewpoint Depression Visibility Wind Speed Wind Dir Waves Ship Positions

A And A

Last reported at 2014-Jul-23 16:24 UTC. Time now 2014-Jul-24 03:58 UTC.
Position N 43°31' E 006°57'.

Type: Pleasure craft. MMSI: 232155000.

Date/timePositionNaut miles runAvg speedWind from/ knotsBaromVisibWave heightAir tempDewpointWater temp
2014-Jul-23 16:24N 43°31' E 006°57'0 0.0
2014-Jul-23 15:30N 43°31' E 006°57'0 0.0
2014-Jul-22 16:33N 43°31' E 006°57'0 0.0
2014-Jul-21 18:31N 43°31' E 006°57'7 7.6
2014-Jul-21 17:33N 43°24' E 006°54'1212.5
2014-Jul-21 16:33N 43°15' E 006°43'3 2.8
2014-Jul-21 15:31N 43°13' E 006°40'0 0.0
2014-Jul-21 13:27N 43°13' E 006°40'1 0.8
2014-Jul-21 12:33N 43°14' E 006°41'3 0.1
2014-Jul-19 18:04N 43°16' E 006°38'2 4.0
2014-Jul-19 17:33N 43°17' E 006°41'4 1.2
2014-Jul-19 14:15N 43°13' E 006°40'0 0.5
2014-Jul-19 13:33N 43°14' E 006°41'3 0.8
2014-Jul-19 09:16N 43°16' E 006°38'0 0.0
2014-Jul-18 18:24N 43°16' E 006°38'8 9.0
2014-Jul-18 17:32N 43°21' E 006°47'1212.1
2014-Jul-18 16:33N 43°30' E 006°58'  
2014-Jul-15 04:33N 43°29' E 006°58'1212.6
2014-Jul-15 03:34N 43°20' E 006°46'6 5.7
2014-Jul-15 02:33N 43°16' E 006°39'0 0.0
2014-Jul-15 01:30N 43°16' E 006°39'0 0.0
2014-Jul-15 00:30N 43°16' E 006°39'0 0.0
2014-Jul-14 23:28N 43°16' E 006°39'0 0.0
2014-Jul-14 22:32N 43°16' E 006°39'0 0.0
2014-Jul-14 21:29N 43°16' E 006°39'0 0.0
2014-Jul-14 20:25N 43°16' E 006°39'0 0.0
2014-Jul-14 19:31N 43°16' E 006°39'0 0.0
2014-Jul-14 18:24N 43°16' E 006°39'3 3.0
2014-Jul-14 17:31N 43°17' E 006°43'4 3.4
2014-Jul-14 16:20N 43°13' E 006°41'0 0.0
2014-Jul-14 15:22N 43°13' E 006°41'0 0.0
2014-Jul-14 14:24N 43°13' E 006°41'5 5.9
2014-Jul-14 13:33N 43°17' E 006°45'1313.1
2014-Jul-14 12:33N 43°27' E 006°58'5 0.8
2014-Jul-14 06:11N 43°31' E 006°57'5 7.1
2014-Jul-14 05:33N 43°29' E 007°02'1211.8
2014-Jul-14 04:33N 43°34' E 007°17'6811.3
2014-Jul-13 22:33N 44°05' E 008°41'1312.3
2014-Jul-13 21:32N 44°11' E 008°56'1212.1
2014-Jul-13 20:33N 44°17' E 009°11'  
Track history (hours):
 
Tides and Currents Weather Stations Pressure Air Temp Water Temp Dewpoint Dewpoint Depression Visibility Wind Speed Wind Dir Waves Ship Positions

A And A

Last reported at 2014-Jul-23 16:24 UTC. Time now 2014-Jul-24 03:58 UTC.
Position N 43°31' E 006°57'.

Type: Pleasure craft. MMSI: 232155000.

Date/timePositionNaut miles runAvg speedWind from/ knotsBaromVisibWave heightAir tempDewpointWater temp
2014-Jul-23 16:24N 43°31' E 006°57'0 0.0
2014-Jul-23 15:30N 43°31' E 006°57'0 0.0
2014-Jul-22 16:33N 43°31' E 006°57'0 0.0
2014-Jul-21 18:31N 43°31' E 006°57'7 7.6
2014-Jul-21 17:33N 43°24' E 006°54'1212.5
2014-Jul-21 16:33N 43°15' E 006°43'3 2.8
2014-Jul-21 15:31N 43°13' E 006°40'0 0.0
2014-Jul-21 13:27N 43°13' E 006°40'1 0.8
2014-Jul-21 12:33N 43°14' E 006°41'3 0.1
2014-Jul-19 18:04N 43°16' E 006°38'2 4.0
2014-Jul-19 17:33N 43°17' E 006°41'4 1.2
2014-Jul-19 14:15N 43°13' E 006°40'0 0.5
2014-Jul-19 13:33N 43°14' E 006°41'3 0.8
2014-Jul-19 09:16N 43°16' E 006°38'0 0.0
2014-Jul-18 18:24N 43°16' E 006°38'8 9.0
2014-Jul-18 17:32N 43°21' E 006°47'1212.1
2014-Jul-18 16:33N 43°30' E 006°58'  
2014-Jul-15 04:33N 43°29' E 006°58'1212.6
2014-Jul-15 03:34N 43°20' E 006°46'6 5.7
2014-Jul-15 02:33N 43°16' E 006°39'0 0.0
2014-Jul-15 01:30N 43°16' E 006°39'0 0.0
2014-Jul-15 00:30N 43°16' E 006°39'0 0.0
2014-Jul-14 23:28N 43°16' E 006°39'0 0.0
2014-Jul-14 22:32N 43°16' E 006°39'0 0.0
2014-Jul-14 21:29N 43°16' E 006°39'0 0.0
2014-Jul-14 20:25N 43°16' E 006°39'0 0.0
2014-Jul-14 19:31N 43°16' E 006°39'0 0.0
2014-Jul-14 18:24N 43°16' E 006°39'3 3.0
2014-Jul-14 17:31N 43°17' E 006°43'4 3.4
2014-Jul-14 16:20N 43°13' E 006°41'0 0.0
2014-Jul-14 15:22N 43°13' E 006°41'0 0.0
2014-Jul-14 14:24N 43°13' E 006°41'5 5.9
2014-Jul-14 13:33N 43°17' E 006°45'1313.1
2014-Jul-14 12:33N 43°27' E 006°58'5 0.8
2014-Jul-14 06:11N 43°31' E 006°57'5 7.1
2014-Jul-14 05:33N 43°29' E 007°02'1211.8
2014-Jul-14 04:33N 43°34' E 007°17'6811.3
2014-Jul-13 22:33N 44°05' E 008°41'1312.3
2014-Jul-13 21:32N 44°11' E 008°56'1212.1
2014-Jul-13 20:33N 44°17' E 009°11'  

Dump ship's entire track history